Time;durP1;ratioP1;P1;durP2;ratioP2;P2;SDS_P1;SDS_P2;PMS_P1;PMS_P2;Temp;Humidity;BMP_temperature;BMP_pressure;BME280_temperature;BME280_humidity;BME280_pressure;Samples;Min_cycle;Max_cycle;Signal;HPM_P1;HPM_P2
2024/03/21 00:00:33;;;;;;;5.70;3.70;;;14.10;78.90;;;;;;5067121;28;20016;-66
2024/03/21 00:02:59;;;;;;;5.82;3.55;;;14.10;78.90;;;;;;5068812;28;20032;-66
2024/03/21 00:05:26;;;;;;;6.43;3.80;;;14.10;79.00;;;;;;5070992;28;20020;-66
2024/03/21 00:07:52;;;;;;;6.80;4.03;;;14.10;79.10;;;;;;5069706;28;20036;-67
2024/03/21 00:10:19;;;;;;;6.97;4.25;;;14.10;79.10;;;;;;5070162;28;20165;-66
2024/03/21 00:12:49;;;;;;;6.75;3.92;;;14.10;79.30;;;;;;5068238;28;20028;-66
2024/03/21 00:15:16;;;;;;;6.43;4.00;;;14.00;79.20;;;;;;5067839;28;20412;-67
2024/03/21 00:17:44;;;;;;;6.30;3.38;;;14.00;79.30;;;;;;5069569;28;20052;-65
2024/03/21 00:20:11;;;;;;;7.28;3.97;;;14.00;79.30;;;;;;5068615;28;20113;-66
2024/03/21 00:22:37;;;;;;;6.40;4.00;;;14.00;79.90;;;;;;5078834;28;20012;-66
2024/03/21 00:25:04;;;;;;;5.28;3.50;;;14.00;79.30;;;;;;5067384;28;20099;-66
2024/03/21 00:27:31;;;;;;;5.45;3.72;;;14.00;79.30;;;;;;5069158;28;20028;-66
2024/03/21 00:29:57;;;;;;;7.30;3.58;;;14.00;79.30;;;;;;5068408;28;20074;-66
2024/03/21 00:32:22;;;;;;;7.07;4.10;;;14.00;79.30;;;;;;5069216;28;20024;-66
2024/03/21 00:34:48;;;;;;;7.35;4.20;;;13.90;79.30;;;;;;5067988;28;20039;-66
2024/03/21 00:37:13;;;;;;;8.73;4.95;;;13.90;79.40;;;;;;5067927;28;20028;-66
2024/03/21 00:39:42;;;;;;;6.50;4.07;;;13.80;79.50;;;;;;5067491;28;20062;-65
2024/03/21 00:42:09;;;;;;;6.88;4.00;;;13.80;79.70;;;;;;5066012;28;20024;-66
2024/03/21 00:44:35;;;;;;;6.07;4.05;;;13.80;79.80;;;;;;5067731;28;20032;-66
2024/03/21 00:47:00;;;;;;;8.75;4.55;;;13.80;79.80;;;;;;5065760;28;20031;-66
2024/03/21 00:49:26;;;;;;;7.60;4.88;;;13.70;79.80;;;;;;5062258;28;20562;-66
2024/03/21 00:51:51;;;;;;;9.68;5.88;;;13.70;79.90;;;;;;5068707;28;20395;-66
2024/03/21 00:54:17;;;;;;;8.82;5.25;;;13.60;79.90;;;;;;5069991;28;20029;-66
2024/03/21 00:56:43;;;;;;;9.07;5.97;;;13.50;80.00;;;;;;5067267;28;20025;-66
2024/03/21 00:59:08;;;;;;;8.65;5.13;;;13.50;80.20;;;;;;5067217;28;20394;-66
2024/03/21 01:01:34;;;;;;;10.90;5.00;;;13.50;80.30;;;;;;5066914;28;20029;-66
2024/03/21 01:04:00;;;;;;;8.32;4.72;;;13.50;80.30;;;;;;5069347;28;20542;-65
2024/03/21 01:06:25;;;;;;;10.07;6.03;;;13.40;80.40;;;;;;5068757;28;20032;-65
2024/03/21 01:08:51;;;;;;;10.10;6.03;;;13.40;80.50;;;;;;5071090;28;20048;-67
2024/03/21 01:11:17;;;;;;;10.98;5.90;;;13.30;80.50;;;;;;5067524;28;20115;-67
2024/03/21 01:13:42;;;;;;;11.13;6.80;;;13.20;80.70;;;;;;5065669;28;20226;-67
2024/03/21 01:16:08;;;;;;;9.32;6.15;;;13.20;80.80;;;;;;5066110;28;20055;-66
2024/03/21 01:18:35;;;;;;;9.13;5.82;;;13.10;81.00;;;;;;5068569;28;20039;-66
2024/03/21 01:21:05;;;;;;;9.55;5.80;;;13.10;80.90;;;;;;5067781;28;20475;-66
2024/03/21 01:23:31;;;;;;;9.23;5.75;;;13.20;81.00;;;;;;5067921;28;20104;-67
2024/03/21 01:25:57;;;;;;;9.88;5.53;;;13.20;81.00;;;;;;5068017;28;20036;-66
2024/03/21 01:28:23;;;;;;;8.68;5.70;;;13.10;80.90;;;;;;5064117;28;20525;-66
2024/03/21 01:30:49;;;;;;;8.95;5.43;;;13.10;81.00;;;;;;5069161;28;20028;-66
2024/03/21 01:33:14;;;;;;;8.35;5.60;;;13.10;81.00;;;;;;5066812;28;20056;-65
2024/03/21 01:35:40;;;;;;;8.90;5.20;;;13.10;81.00;;;;;;5071074;28;20174;-66
2024/03/21 01:38:05;;;;;;;7.65;4.93;;;13.10;81.00;;;;;;5072957;28;20016;-66
2024/03/21 01:40:32;;;;;;;8.63;4.95;;;13.10;81.10;;;;;;5071738;28;20114;-66
2024/03/21 01:42:57;;;;;;;9.18;5.18;;;13.10;81.10;;;;;;5070054;28;20058;-66
2024/03/21 01:45:23;;;;;;;8.43;4.88;;;13.10;81.20;;;;;;5068948;28;20044;-66
2024/03/21 01:47:49;;;;;;;7.90;5.10;;;13.10;81.10;;;;;;5064668;28;20063;-66
2024/03/21 01:50:14;;;;;;;7.78;4.82;;;13.10;81.10;;;;;;5074759;28;20029;-66
2024/03/21 01:52:42;;;;;;;6.78;4.43;;;13.20;81.20;;;;;;5071558;28;20073;-66
2024/03/21 01:55:14;;;;;;;7.65;4.65;;;13.20;81.30;;;;;;5079732;28;20072;-67
2024/03/21 01:57:40;;;;;;;8.30;5.57;;;13.10;81.20;;;;;;5063731;28;22273;-66
2024/03/21 02:00:08;;;;;;;8.00;5.32;;;13.10;81.40;;;;;;5069915;28;20433;-66
2024/03/21 02:02:35;;;;;;;8.25;5.00;;;13.10;81.40;;;;;;5073783;28;20032;-66
2024/03/21 02:05:01;;;;;;;8.10;5.38;;;13.10;81.40;;;;;;5083386;28;20027;-66
2024/03/21 02:07:27;;;;;;;7.28;4.57;;;13.10;81.30;;;;;;5074855;28;20024;-66
2024/03/21 02:09:53;;;;;;;7.07;4.30;;;13.10;81.30;;;;;;5079015;28;20023;-66
2024/03/21 02:12:46;;;;;;;7.45;5.00;;;13.10;81.40;;;;;;5071377;28;20413;-66
2024/03/21 02:15:12;;;;;;;8.30;5.07;;;13.10;81.30;;;;;;5070980;28;20491;-67
2024/03/21 02:17:38;;;;;;;7.70;4.60;;;13.10;81.40;;;;;;5068555;28;20150;-67
2024/03/21 02:20:05;;;;;;;7.90;4.72;;;13.10;81.50;;;;;;5067813;28;20017;-66
2024/03/21 02:22:37;;;;;;;7.90;5.20;;;13.10;81.50;;;;;;5083604;28;20026;-67
2024/03/21 02:25:11;;;;;;;8.25;5.00;;;13.10;81.50;;;;;;5077819;28;20036;-66
2024/03/21 02:27:41;;;;;;;7.18;4.50;;;13.00;81.60;;;;;;5079460;28;20476;-66
2024/03/21 02:30:08;;;;;;;10.18;5.93;;;13.00;81.70;;;;;;5072724;28;20033;-67
2024/03/21 02:32:35;;;;;;;8.35;5.10;;;13.00;81.70;;;;;;5075642;28;20017;-66
2024/03/21 02:35:02;;;;;;;8.73;5.75;;;13.00;81.80;;;;;;5070372;28;20033;-67
2024/03/21 02:37:27;;;;;;;9.98;6.32;;;12.90;81.70;;;;;;5068011;28;20040;-66
2024/03/21 02:39:53;;;;;;;11.00;6.30;;;12.90;81.90;;;;;;5072242;28;20669;-66
2024/03/21 02:42:20;;;;;;;10.93;6.65;;;12.80;81.90;;;;;;5070332;28;20020;-66
2024/03/21 02:44:47;;;;;;;10.65;6.10;;;12.80;82.10;;;;;;5070105;28;20100;-66
2024/03/21 02:47:13;;;;;;;9.35;5.80;;;12.80;82.80;;;;;;5070481;28;20025;-67
2024/03/21 02:49:39;;;;;;;10.57;6.50;;;12.80;82.20;;;;;;5069851;28;20126;-66
2024/03/21 02:52:05;;;;;;;9.95;6.20;;;12.70;82.20;;;;;;5076592;28;20103;-66
2024/03/21 02:54:31;;;;;;;11.15;7.15;;;12.80;82.90;;;;;;5071632;28;20070;-66
2024/03/21 02:57:02;;;;;;;10.10;6.32;;;12.70;82.30;;;;;;5071417;28;20059;-66
2024/03/21 02:59:28;;;;;;;9.45;5.53;;;12.70;82.50;;;;;;5069183;28;20152;-67
2024/03/21 03:01:53;;;;;;;9.25;6.07;;;12.70;82.50;;;;;;5075591;28;20099;-67
2024/03/21 03:04:19;;;;;;;8.45;5.50;;;12.70;82.50;;;;;;5072767;28;20451;-67
2024/03/21 03:06:44;;;;;;;10.68;6.78;;;12.70;82.50;;;;;;5072434;28;20019;-67
2024/03/21 03:09:10;;;;;;;8.90;5.68;;;12.60;82.50;;;;;;5072420;28;20090;-66
2024/03/21 03:11:39;;;;;;;8.68;5.53;;;12.70;82.60;;;;;;5073726;28;20109;-66
2024/03/21 03:14:06;;;;;;;8.50;4.97;;;12.60;82.50;;;;;;5072109;28;20024;-67
2024/03/21 03:16:31;;;;;;;8.23;4.82;;;12.60;82.50;;;;;;5072804;28;20024;-66
2024/03/21 03:18:57;;;;;;;10.13;5.90;;;12.70;82.50;;;;;;5070318;28;20037;-67
2024/03/21 03:21:22;;;;;;;9.68;5.70;;;12.70;82.50;;;;;;5068783;28;20031;-66
2024/03/21 03:23:48;;;;;;;8.15;5.20;;;12.60;82.50;;;;;;5078823;28;20045;-65
2024/03/21 03:26:14;;;;;;;7.47;4.85;;;12.60;82.60;;;;;;5068928;28;20028;-66
2024/03/21 03:28:39;;;;;;;9.25;5.53;;;12.60;82.70;;;;;;5079426;28;20035;-66
2024/03/21 03:31:05;;;;;;;9.45;5.70;;;12.60;82.70;;;;;;5071228;28;20055;-66
2024/03/21 03:36:15;;;;;;;9.25;5.72;;;12.50;82.90;;;;;;5068550;28;20214;-66
2024/03/21 03:38:40;;;;;;;8.43;5.00;;;12.40;83.10;;;;;;5077336;28;20092;-66
2024/03/21 03:41:06;;;;;;;9.52;5.63;;;12.40;83.20;;;;;;5067098;28;20020;-66
2024/03/21 03:43:31;;;;;;;10.45;6.10;;;12.40;83.40;;;;;;5068512;28;20502;-66
2024/03/21 03:45:57;;;;;;;11.57;6.88;;;12.30;83.40;;;;;;5072061;28;20544;-66
2024/03/21 03:48:22;;;;;;;11.90;6.55;;;12.30;83.60;;;;;;5072869;28;20055;-66
2024/03/21 03:50:48;;;;;;;9.85;5.93;;;12.30;83.60;;;;;;5075035;28;20020;-66
2024/03/21 03:53:14;;;;;;;9.85;6.10;;;12.20;83.70;;;;;;5069198;28;20523;-66
2024/03/21 03:55:39;;;;;;;9.77;5.80;;;12.20;83.80;;;;;;5069296;28;20024;-67
2024/03/21 03:58:05;;;;;;;10.48;6.07;;;12.20;83.80;;;;;;5070044;28;20024;-66
2024/03/21 04:00:30;;;;;;;10.95;6.57;;;12.20;83.80;;;;;;5076593;28;20088;-66
2024/03/21 04:02:56;;;;;;;10.57;6.72;;;12.20;83.90;;;;;;5068437;28;20017;-67
2024/03/21 04:05:21;;;;;;;12.27;7.40;;;12.20;83.90;;;;;;5077760;28;20548;-66
2024/03/21 04:07:47;;;;;;;9.73;6.35;;;12.20;84.00;;;;;;5071527;28;20530;-67
2024/03/21 04:10:13;;;;;;;9.98;6.78;;;12.20;84.10;;;;;;5069724;28;20017;-66
2024/03/21 04:12:42;;;;;;;9.80;6.30;;;12.20;84.10;;;;;;5073467;28;20115;-66
2024/03/21 04:15:08;;;;;;;10.68;7.03;;;12.20;84.10;;;;;;5075212;28;20265;-66
2024/03/21 04:17:34;;;;;;;17.02;9.35;;;12.20;84.40;;;;;;5067124;28;20086;-66
2024/03/21 04:20:09;;;;;;;11.02;7.10;;;12.10;84.50;;;;;;5065545;28;20024;-66
2024/03/21 04:22:35;;;;;;;9.07;5.80;;;12.10;84.60;;;;;;5066092;28;20099;-66
2024/03/21 04:25:05;;;;;;;9.63;5.72;;;12.10;84.60;;;;;;5078168;28;20497;-66
2024/03/21 04:27:31;;;;;;;7.90;5.43;;;12.10;84.60;;;;;;5072667;28;20029;-66
2024/03/21 04:29:59;;;;;;;10.88;6.60;;;12.10;84.60;;;;;;5068474;28;20029;-66
2024/03/21 04:32:25;;;;;;;10.05;5.97;;;12.10;84.70;;;;;;5074181;28;20017;-67
2024/03/21 04:34:50;;;;;;;10.88;6.60;;;12.00;84.70;;;;;;5075206;28;20021;-66
2024/03/21 04:37:18;;;;;;;11.05;6.40;;;12.10;84.90;;;;;;5073278;28;20046;-67
2024/03/21 04:39:47;;;;;;;9.50;5.72;;;12.00;84.90;;;;;;5072973;28;20028;-66
2024/03/21 04:42:14;;;;;;;9.15;6.15;;;12.00;85.10;;;;;;5064647;28;20458;-67
2024/03/21 04:44:41;;;;;;;8.40;5.68;;;12.00;85.10;;;;;;5078124;28;20024;-67
2024/03/21 04:47:06;;;;;;;8.10;5.28;;;12.00;85.20;;;;;;5071942;28;20483;-67
2024/03/21 04:49:32;;;;;;;7.88;4.72;;;12.00;85.90;;;;;;5064321;28;20127;-67
2024/03/21 04:51:57;;;;;;;6.10;4.40;;;12.00;85.20;;;;;;5083518;28;20063;-67
2024/03/21 04:54:23;;;;;;;6.13;3.90;;;12.00;85.20;;;;;;5081953;28;20407;-68
2024/03/21 04:56:48;;;;;;;5.68;3.55;;;11.90;85.20;;;;;;5070323;28;20028;-68
2024/03/21 04:59:14;;;;;;;5.43;3.20;;;11.80;85.20;;;;;;5065546;28;20111;-66
2024/03/21 05:01:39;;;;;;;4.55;2.35;;;11.80;85.30;;;;;;5068384;28;20070;-67
2024/03/21 05:04:05;;;;;;;2.95;2.03;;;11.70;85.40;;;;;;5070951;28;20021;-67
2024/03/21 05:06:31;;;;;;;2.85;2.00;;;11.60;85.40;;;;;;5080689;28;20441;-67
2024/03/21 05:08:57;;;;;;;2.03;1.75;;;11.60;85.40;;;;;;5074533;28;20078;-67
2024/03/21 05:11:23;;;;;;;1.80;1.50;;;11.50;85.40;;;;;;5068904;28;20059;-67
2024/03/21 05:13:50;;;;;;;2.83;1.73;;;11.50;85.50;;;;;;5079143;28;20036;-67
2024/03/21 05:16:16;;;;;;;2.10;1.77;;;11.50;85.50;;;;;;5081287;28;20149;-66
2024/03/21 05:18:42;;;;;;;3.15;1.80;;;11.40;85.50;;;;;;5079297;28;20111;-67
2024/03/21 05:21:08;;;;;;;2.63;1.60;;;11.40;85.60;;;;;;5078200;28;20031;-66
2024/03/21 05:23:33;;;;;;;1.73;1.30;;;11.40;85.50;;;;;;5073941;28;20024;-66
2024/03/21 05:25:59;;;;;;;2.08;1.63;;;11.40;85.50;;;;;;5083121;28;20058;-66
2024/03/21 05:28:24;;;;;;;1.75;1.50;;;11.40;85.40;;;;;;5074668;28;20059;-66
2024/03/21 05:30:50;;;;;;;2.88;1.70;;;11.30;85.30;;;;;;5078596;28;20090;-66
2024/03/21 05:33:15;;;;;;;2.35;1.67;;;11.30;85.30;;;;;;5079262;28;20032;-67
2024/03/21 05:35:41;;;;;;;2.10;1.90;;;11.30;85.40;;;;;;5080550;28;20071;-66
2024/03/21 05:38:06;;;;;;;2.80;2.28;;;11.20;85.40;;;;;;5071155;28;20124;-66
2024/03/21 05:40:32;;;;;;;3.38;2.50;;;11.10;85.40;;;;;;5073804;28;20048;-66
2024/03/21 05:42:58;;;;;;;2.50;2.15;;;11.10;85.50;;;;;;5073726;28;20020;-66
2024/03/21 05:45:23;;;;;;;3.42;2.80;;;11.00;86.10;;;;;;5070702;28;20036;-66
2024/03/21 05:47:49;;;;;;;3.17;2.50;;;11.00;85.50;;;;;;5077626;28;20089;-66
2024/03/21 05:50:14;;;;;;;2.78;2.42;;;11.00;85.50;;;;;;5076780;28;20032;-67
2024/03/21 05:52:40;;;;;;;5.38;3.45;;;11.00;85.50;;;;;;5078491;28;20112;-67
2024/03/21 05:55:06;;;;;;;4.53;3.58;;;10.90;85.40;;;;;;5068188;28;20032;-67
2024/03/21 05:57:31;;;;;;;5.20;4.10;;;10.80;85.40;;;;;;5069009;28;20029;-67
2024/03/21 05:59:57;;;;;;;6.72;3.47;;;10.80;85.40;;;;;;5079096;28;20471;-67
2024/03/21 06:02:22;;;;;;;3.40;2.60;;;10.70;85.40;;;;;;5077081;28;20032;-68
2024/03/21 06:04:48;;;;;;;3.35;2.58;;;10.80;85.40;;;;;;5073150;28;20020;-67
2024/03/21 06:07:14;;;;;;;7.07;2.80;;;10.70;85.30;;;;;;5078220;28;20032;-67
2024/03/21 06:09:39;;;;;;;4.10;2.50;;;10.70;85.30;;;;;;5077670;28;20036;-70
2024/03/21 06:12:05;;;;;;;3.75;2.15;;;10.60;85.20;;;;;;5078096;28;20035;-68
2024/03/21 06:14:31;;;;;;;2.97;2.00;;;10.60;85.20;;;;;;5069021;28;20024;-66
2024/03/21 06:16:58;;;;;;;2.75;1.80;;;10.60;85.10;;;;;;5075132;28;20032;-68
2024/03/21 06:19:23;;;;;;;2.63;1.60;;;10.60;85.10;;;;;;5067166;28;20063;-67
2024/03/21 06:21:49;;;;;;;2.70;1.70;;;10.60;85.00;;;;;;5081228;28;20075;-67
2024/03/21 06:24:15;;;;;;;3.58;1.60;;;10.50;84.90;;;;;;5076754;28;20490;-68
2024/03/21 06:26:40;;;;;;;4.43;1.75;;;10.50;84.80;;;;;;5079580;28;20063;-67
2024/03/21 06:29:06;;;;;;;3.40;1.52;;;10.50;84.80;;;;;;5077358;28;20056;-67
2024/03/21 06:31:31;;;;;;;2.00;1.30;;;10.40;84.70;;;;;;5075962;28;20025;-66
2024/03/21 06:33:57;;;;;;;1.38;1.02;;;10.40;84.70;;;;;;5073080;28;20042;-67
2024/03/21 06:36:22;;;;;;;2.85;1.20;;;10.40;84.70;;;;;;5072782;28;20099;-67
2024/03/21 06:38:49;;;;;;;1.42;1.20;;;10.40;84.70;;;;;;5080464;28;20489;-67
2024/03/21 06:41:14;;;;;;;1.50;1.20;;;10.50;84.80;;;;;;5080476;28;20028;-67
2024/03/21 06:43:40;;;;;;;2.03;1.40;;;10.40;84.70;;;;;;5073373;28;20028;-67
2024/03/21 06:46:05;;;;;;;2.20;1.35;;;10.40;84.70;;;;;;5070306;28;20047;-68
2024/03/21 06:48:31;;;;;;;2.05;1.00;;;10.30;84.70;;;;;;5072780;28;20545;-67
2024/03/21 06:50:56;;;;;;;3.58;1.10;;;10.30;84.70;;;;;;5073450;28;20637;-66
2024/03/21 06:53:22;;;;;;;3.20;0.95;;;10.30;84.70;;;;;;5079101;28;20052;-67
2024/03/21 06:55:54;;;;;;;1.45;0.80;;;10.40;84.70;;;;;;5072198;28;20460;-67
2024/03/21 06:58:20;;;;;;;2.13;0.82;;;10.40;84.50;;;;;;5076848;28;20284;-67
2024/03/21 07:00:46;;;;;;;2.67;1.50;;;10.40;84.40;;;;;;5068600;28;20099;-67
2024/03/21 07:03:13;;;;;;;2.40;0.80;;;10.40;84.30;;;;;;5079994;28;20020;-67
2024/03/21 07:05:39;;;;;;;1.83;0.80;;;10.40;84.80;;;;;;5084043;28;20089;-66
2024/03/21 07:08:06;;;;;;;1.33;0.85;;;10.40;84.20;;;;;;5080379;28;20020;-67
2024/03/21 07:10:32;;;;;;;0.93;0.90;;;10.50;84.30;;;;;;5072208;28;20020;-67
2024/03/21 07:12:58;;;;;;;2.28;0.90;;;10.50;84.00;;;;;;5071065;28;20086;-66
2024/03/21 07:15:23;;;;;;;2.15;1.00;;;10.50;84.00;;;;;;5069835;28;20024;-67
2024/03/21 07:17:49;;;;;;;1.90;0.80;;;10.50;83.90;;;;;;5070919;28;20092;-67
2024/03/21 07:20:14;;;;;;;1.02;0.75;;;10.60;83.90;;;;;;5073828;28;20095;-66
2024/03/21 07:22:40;;;;;;;1.55;0.90;;;10.70;83.80;;;;;;5083230;28;20028;-66
2024/03/21 07:25:07;;;;;;;2.38;0.90;;;10.70;83.60;;;;;;5078282;28;20021;-67
2024/03/21 07:27:33;;;;;;;1.40;0.80;;;10.70;83.50;;;;;;5074770;28;20058;-66
2024/03/21 07:29:58;;;;;;;3.00;0.80;;;10.70;83.50;;;;;;5072653;28;20031;-66
2024/03/21 07:32:24;;;;;;;1.38;0.73;;;10.70;83.50;;;;;;5067519;28;20028;-66
2024/03/21 07:34:50;;;;;;;2.03;1.20;;;10.70;83.50;;;;;;5076785;28;20032;-67
2024/03/21 07:37:16;;;;;;;2.65;1.05;;;10.70;83.40;;;;;;5068379;28;20439;-67
2024/03/21 07:39:42;;;;;;;1.27;0.73;;;10.70;83.30;;;;;;5075493;28;20032;-67
2024/03/21 07:42:07;;;;;;;1.88;0.80;;;10.70;83.30;;;;;;5071358;28;20052;-65
2024/03/21 07:44:33;;;;;;;1.08;0.90;;;10.70;83.20;;;;;;5075243;28;20095;-66
2024/03/21 07:46:59;;;;;;;1.38;0.52;;;10.70;83.20;;;;;;5077887;28;20108;-66
2024/03/21 07:49:24;;;;;;;1.98;0.90;;;10.80;83.00;;;;;;5078156;28;20020;-67
2024/03/21 07:51:51;;;;;;;2.08;0.90;;;10.80;82.90;;;;;;5069884;28;20074;-67
2024/03/21 07:54:17;;;;;;;1.40;0.60;;;10.80;82.90;;;;;;5072950;28;20028;-68
2024/03/21 07:56:42;;;;;;;3.92;0.88;;;10.80;82.90;;;;;;5069501;28;20024;-67
2024/03/21 07:59:09;;;;;;;4.00;1.00;;;10.80;82.80;;;;;;5076387;28;20028;-67
2024/03/21 08:01:34;;;;;;;4.10;0.95;;;10.80;82.80;;;;;;5067564;28;20040;-67
2024/03/21 08:04:03;;;;;;;3.63;1.10;;;10.90;82.70;;;;;;5070747;28;20478;-67
2024/03/21 08:06:29;;;;;;;2.60;1.00;;;11.00;82.50;;;;;;5069507;28;20017;-67
2024/03/21 08:08:55;;;;;;;1.58;0.80;;;11.00;82.30;;;;;;5076814;28;20039;-67
2024/03/21 08:11:20;;;;;;;2.17;1.30;;;11.10;82.30;;;;;;5080384;28;20021;-67
2024/03/21 08:13:46;;;;;;;2.70;0.95;;;11.00;82.20;;;;;;5079078;28;20024;-66
2024/03/21 08:16:11;;;;;;;1.85;0.98;;;11.10;82.10;;;;;;5074394;28;20016;-67
2024/03/21 08:18:37;;;;;;;2.10;0.70;;;11.00;82.00;;;;;;5077924;28;20491;-67
2024/03/21 08:21:02;;;;;;;1.63;0.80;;;11.10;81.90;;;;;;5068831;28;20021;-66
2024/03/21 08:23:30;;;;;;;1.48;0.80;;;11.10;81.80;;;;;;5070570;28;20108;-66
2024/03/21 08:26:00;;;;;;;2.97;0.90;;;11.10;81.80;;;;;;5070599;28;20051;-66
2024/03/21 08:28:26;;;;;;;1.20;0.90;;;11.20;81.70;;;;;;5073504;28;20016;-66
2024/03/21 08:30:52;;;;;;;2.67;0.98;;;11.10;81.60;;;;;;5075212;28;20102;-67
2024/03/21 08:33:17;;;;;;;3.40;0.80;;;11.20;81.70;;;;;;5072828;28;20067;-67
2024/03/21 08:35:43;;;;;;;2.55;1.00;;;11.20;81.50;;;;;;5077329;28;20487;-67
2024/03/21 08:38:09;;;;;;;0.85;0.60;;;11.30;81.50;;;;;;5067059;28;20013;-67
2024/03/21 08:40:36;;;;;;;0.65;0.60;;;11.40;81.40;;;;;;5075443;28;20423;-68
2024/03/21 08:43:02;;;;;;;4.70;0.88;;;11.50;81.20;;;;;;5082353;28;20104;-67
2024/03/21 08:45:27;;;;;;;1.67;0.70;;;11.60;80.90;;;;;;5085147;28;20455;-67
2024/03/21 08:47:53;;;;;;;0.90;0.70;;;11.60;80.70;;;;;;5081286;28;20012;-65
2024/03/21 08:50:19;;;;;;;0.60;0.60;;;11.70;80.80;;;;;;5076085;28;20025;-67
2024/03/21 08:52:45;;;;;;;1.60;0.60;;;11.80;80.60;;;;;;5076713;28;20028;-66
2024/03/21 08:55:10;;;;;;;2.20;0.90;;;11.90;80.40;;;;;;5084164;28;20021;-67
2024/03/21 08:57:36;;;;;;;2.20;0.70;;;11.90;80.10;;;;;;5087413;28;20077;-67
2024/03/21 09:00:03;;;;;;;1.40;0.75;;;11.90;80.00;;;;;;5087492;28;20034;-67
2024/03/21 09:02:29;;;;;;;2.25;1.25;;;11.90;79.90;;;;;;5073081;28;20490;-67
2024/03/21 09:04:55;;;;;;;2.22;0.63;;;12.00;79.90;;;;;;5081595;28;20056;-66
2024/03/21 09:07:20;;;;;;;3.58;1.13;;;12.00;79.90;;;;;;5082963;28;20479;-66
2024/03/21 09:09:46;;;;;;;3.75;1.02;;;12.10;80.00;;;;;;5075956;28;20472;-66
2024/03/21 09:12:11;;;;;;;2.08;1.15;;;12.10;79.60;;;;;;5083426;28;20515;-67
2024/03/21 09:14:37;;;;;;;1.77;1.00;;;12.00;79.70;;;;;;5079885;28;20091;-68
2024/03/21 09:17:02;;;;;;;2.20;0.88;;;12.10;79.60;;;;;;5077446;28;20036;-66
2024/03/21 09:19:28;;;;;;;3.17;1.10;;;12.10;79.30;;;;;;5084143;28;20024;-67
2024/03/21 09:21:56;;;;;;;1.02;0.82;;;12.10;79.20;;;;;;5074844;28;20066;-66
2024/03/21 09:24:22;;;;;;;1.80;0.90;;;12.20;79.10;;;;;;5079817;28;20027;-67
2024/03/21 09:26:48;;;;;;;1.27;0.70;;;12.30;79.00;;;;;;5075648;28;20027;-66
2024/03/21 09:29:14;;;;;;;1.55;0.80;;;12.40;78.70;;;;;;5069446;28;20277;-66
2024/03/21 09:31:40;;;;;;;2.88;1.05;;;12.60;78.50;;;;;;5068042;28;20538;-66
2024/03/21 09:34:06;;;;;;;2.15;0.90;;;12.60;78.40;;;;;;5069169;28;20039;-66
2024/03/21 09:36:31;;;;;;;3.67;1.40;;;12.60;78.30;;;;;;5064591;28;20114;-66
2024/03/21 09:38:57;;;;;;;2.10;0.90;;;12.60;78.20;;;;;;5073658;28;20056;-67
2024/03/21 09:41:24;;;;;;;2.33;0.90;;;12.60;78.30;;;;;;5075959;28;20114;-67
2024/03/21 09:43:50;;;;;;;2.45;0.82;;;12.70;78.40;;;;;;5071711;28;20017;-66
2024/03/21 09:46:17;;;;;;;1.17;0.90;;;12.80;78.20;;;;;;5075982;28;20100;-66
2024/03/21 09:48:46;;;;;;;3.75;1.00;;;12.90;78.00;;;;;;5072537;28;20032;-67
2024/03/21 09:51:22;;;;;;;1.67;0.80;;;12.90;77.80;;;;;;5082341;28;20107;-67
2024/03/21 09:53:48;;;;;;;2.47;0.95;;;13.10;77.80;;;;;;5070029;28;20032;-66
2024/03/21 09:56:18;;;;;;;1.30;0.93;;;13.10;77.50;;;;;;5069793;28;20029;-66
2024/03/21 09:58:44;;;;;;;1.30;0.63;;;13.30;77.30;;;;;;5073883;28;20020;-68
2024/03/21 10:01:21;;;;;;;2.85;1.00;;;13.40;77.10;;;;;;5067085;28;20102;-67
2024/03/21 10:03:52;;;;;;;1.13;0.80;;;13.50;76.70;;;;;;5069422;28;20402;-67
2024/03/21 10:06:17;;;;;;;1.10;0.90;;;13.60;76.70;;;;;;5071394;28;20036;-67
2024/03/21 10:08:43;;;;;;;2.35;1.30;;;13.70;76.60;;;;;;5070536;28;20036;-68
2024/03/21 10:11:08;;;;;;;1.50;1.25;;;13.70;76.30;;;;;;5067550;28;20035;-67
2024/03/21 10:13:34;;;;;;;5.93;1.75;;;13.70;76.00;;;;;;5064535;28;20028;-66
2024/03/21 10:16:00;;;;;;;2.10;1.02;;;13.70;76.20;;;;;;5060060;28;20029;-66
2024/03/21 10:18:25;;;;;;;4.22;1.40;;;13.60;76.20;;;;;;5071159;28;20035;-65
2024/03/21 10:20:51;;;;;;;2.13;1.30;;;13.50;76.10;;;;;;5074876;28;20024;-68
2024/03/21 10:23:17;;;;;;;2.20;1.40;;;13.60;76.30;;;;;;5078960;28;20359;-65
2024/03/21 10:25:48;;;;;;;1.85;1.30;;;13.60;75.90;;;;;;5076760;28;20020;-65
2024/03/21 10:28:17;;;;;;;2.80;1.20;;;13.50;76.00;;;;;;5073205;28;20012;-64
2024/03/21 10:30:43;;;;;;;1.67;0.90;;;13.50;76.20;;;;;;5073627;28;20270;-65
2024/03/21 10:33:16;;;;;;;1.00;0.90;;;13.60;76.20;;;;;;5075297;28;20051;-65
2024/03/21 10:35:42;;;;;;;2.70;1.10;;;13.60;76.00;;;;;;5084226;28;20021;-66
2024/03/21 10:38:17;;;;;;;2.97;1.23;;;13.60;75.60;;;;;;5085169;28;20112;-64
2024/03/21 10:40:51;;;;;;;1.67;1.15;;;13.70;75.80;;;;;;5070005;28;20032;-65
2024/03/21 10:43:19;;;;;;;1.10;1.00;;;13.70;75.60;;;;;;5079393;28;20028;-65
2024/03/21 10:45:47;;;;;;;3.05;1.33;;;14.00;75.40;;;;;;5077623;28;20021;-65
2024/03/21 10:48:34;;;;;;;1.40;1.00;;;14.20;75.00;;;;;;5080918;28;20021;-65
2024/03/21 10:51:20;;;;;;;1.52;1.13;;;14.30;74.70;;;;;;5079493;28;20500;-66
2024/03/21 10:53:59;;;;;;;2.60;1.20;;;14.40;74.30;;;;;;5078173;28;20031;-66
2024/03/21 10:56:36;;;;;;;1.45;1.20;;;14.50;74.10;;;;;;5075364;28;20028;-65
2024/03/21 10:59:02;;;;;;;1.33;1.00;;;14.50;73.60;;;;;;5066937;28;20016;-65
2024/03/21 11:01:42;;;;;;;3.45;1.10;;;14.50;73.90;;;;;;5071110;28;20099;-65
2024/03/21 11:04:12;;;;;;;2.63;0.80;;;14.50;74.00;;;;;;5073449;28;20031;-65
2024/03/21 11:06:41;;;;;;;1.40;1.10;;;14.60;74.00;;;;;;5081786;28;20108;-65
2024/03/21 11:09:07;;;;;;;2.80;1.00;;;14.70;73.90;;;;;;5079994;28;20027;-65
2024/03/21 11:11:33;;;;;;;2.53;1.00;;;14.70;73.70;;;;;;5082868;28;20016;-66
2024/03/21 11:14:09;;;;;;;3.13;1.40;;;14.70;73.70;;;;;;5078470;28;20040;-65
2024/03/21 11:16:37;;;;;;;2.38;1.10;;;14.60;73.50;;;;;;5077918;28;20016;-66
2024/03/21 11:19:03;;;;;;;2.72;0.98;;;14.60;73.70;;;;;;5074942;28;20077;-66
2024/03/21 11:21:29;;;;;;;2.92;1.02;;;14.50;73.80;;;;;;5073815;28;20020;-65
2024/03/21 11:23:54;;;;;;;2.00;0.80;;;14.60;73.90;;;;;;5078117;28;20118;-66
2024/03/21 11:26:20;;;;;;;2.80;1.17;;;14.70;73.90;;;;;;5075668;28;20021;-65
2024/03/21 11:28:47;;;;;;;2.00;1.00;;;14.60;73.50;;;;;;5079591;28;20522;-66
2024/03/21 11:31:23;;;;;;;1.20;0.85;;;14.60;73.60;;;;;;5080786;28;20020;-66
2024/03/21 11:33:49;;;;;;;2.38;1.27;;;14.70;73.70;;;;;;5073022;28;21692;-65
2024/03/21 11:36:16;;;;;;;4.78;1.30;;;14.70;73.20;;;;;;5075798;28;20033;-65
2024/03/21 11:38:43;;;;;;;2.03;0.95;;;14.60;73.20;;;;;;5068127;28;20032;-65
2024/03/21 11:41:25;;;;;;;2.65;1.23;;;14.60;73.50;;;;;;5078311;28;20029;-65
2024/03/21 11:43:51;;;;;;;;;;;14.50;73.40;;;;;;5077935;28;20027;-66
2024/03/21 11:46:19;;;;;;;3.20;1.08;;;14.40;73.40;;;;;;5079930;28;19909;-65
2024/03/21 11:49:03;;;;;;;2.20;1.00;;;14.50;73.60;;;;;;5078551;28;20034;-65
2024/03/21 11:51:30;;;;;;;1.58;1.00;;;14.50;73.50;;;;;;5078867;28;20028;-65
2024/03/21 11:54:07;;;;;;;1.30;0.95;;;14.60;73.40;;;;;;5089885;28;20364;-66
2024/03/21 11:56:33;;;;;;;0.77;0.70;;;14.70;73.40;;;;;;5069838;28;20435;-65
2024/03/21 11:59:00;;;;;;;1.83;1.00;;;14.90;73.20;;;;;;5070552;28;20016;-65
2024/03/21 12:01:26;;;;;;;2.30;0.90;;;15.00;72.90;;;;;;5066497;28;20028;-65
2024/03/21 12:03:52;;;;;;;2.97;0.98;;;15.00;72.90;;;;;;5076219;28;20020;-65
2024/03/21 12:06:18;;;;;;;3.10;1.02;;;15.20;72.60;;;;;;5071533;28;20052;-65
2024/03/21 12:08:43;;;;;;;1.83;0.90;;;15.30;72.20;;;;;;5070379;28;20027;-65
2024/03/21 12:11:16;;;;;;;1.38;1.10;;;15.50;72.00;;;;;;5081394;28;20020;-65
2024/03/21 12:13:42;;;;;;;2.38;0.80;;;15.50;71.90;;;;;;5065789;28;20432;-65
2024/03/21 12:16:13;;;;;;;1.45;0.80;;;15.50;71.70;;;;;;5068939;28;20035;-65
2024/03/21 12:18:38;;;;;;;1.75;1.08;;;15.50;71.90;;;;;;5076884;28;20028;-65
2024/03/21 12:21:04;;;;;;;1.65;0.70;;;15.60;71.90;;;;;;5076468;28;20020;-65
2024/03/21 12:23:30;;;;;;;0.98;0.77;;;15.80;71.80;;;;;;5075516;28;20020;-65
2024/03/21 12:25:56;;;;;;;1.65;0.80;;;15.90;71.40;;;;;;5066810;28;20035;-65
2024/03/21 12:28:26;;;;;;;1.58;1.10;;;16.00;71.30;;;;;;5074544;28;20455;-65
2024/03/21 12:30:52;;;;;;;1.48;0.90;;;15.90;71.00;;;;;;5074003;28;20038;-65
2024/03/21 12:33:17;;;;;;;1.77;0.80;;;15.80;71.00;;;;;;5070770;28;20028;-64
2024/03/21 12:35:43;;;;;;;1.48;0.80;;;15.70;71.20;;;;;;5078302;28;20047;-65
2024/03/21 12:38:08;;;;;;;2.00;0.85;;;15.70;71.20;;;;;;5073558;28;20024;-65
2024/03/21 12:40:34;;;;;;;1.80;0.70;;;15.80;70.90;;;;;;5068598;28;20021;-65
2024/03/21 12:43:00;;;;;;;1.20;0.90;;;15.80;71.10;;;;;;5074685;28;20043;-66
2024/03/21 12:45:25;;;;;;;2.55;1.23;;;15.80;71.00;;;;;;5077873;28;20036;-65